sensor_id;sensor_type;location;lat;lon;timestamp;P1;durP1;ratioP1;P2;durP2;ratioP2
11143;SDS011;5626;44.730;10.276;2022-10-23T00:00:10;37.25;;;27.73;;
11143;SDS011;5626;44.730;10.276;2022-10-23T00:02:39;34.42;;;27.98;;
11143;SDS011;5626;44.730;10.276;2022-10-23T00:05:09;41.28;;;29.63;;
11143;SDS011;5626;44.730;10.276;2022-10-23T00:07:39;38.63;;;29.20;;
11143;SDS011;5626;44.730;10.276;2022-10-23T00:10:08;38.15;;;28.15;;
11143;SDS011;5626;44.730;10.276;2022-10-23T00:12:38;38.58;;;28.35;;
11143;SDS011;5626;44.730;10.276;2022-10-23T00:15:09;40.10;;;28.60;;
11143;SDS011;5626;44.730;10.276;2022-10-23T00:17:39;37.70;;;29.40;;
11143;SDS011;5626;44.730;10.276;2022-10-23T00:20:09;37.22;;;27.27;;
11143;SDS011;5626;44.730;10.276;2022-10-23T00:22:40;38.55;;;28.05;;
11143;SDS011;5626;44.730;10.276;2022-10-23T00:25:09;39.28;;;29.00;;
11143;SDS011;5626;44.730;10.276;2022-10-23T00:27:39;36.15;;;28.60;;
11143;SDS011;5626;44.730;10.276;2022-10-23T00:30:10;44.47;;;31.08;;
11143;SDS011;5626;44.730;10.276;2022-10-23T00:32:40;36.10;;;28.48;;
11143;SDS011;5626;44.730;10.276;2022-10-23T00:35:10;38.83;;;28.23;;
11143;SDS011;5626;44.730;10.276;2022-10-23T00:37:39;37.58;;;28.17;;
11143;SDS011;5626;44.730;10.276;2022-10-23T00:40:09;39.33;;;28.42;;
11143;SDS011;5626;44.730;10.276;2022-10-23T00:42:39;39.20;;;29.70;;
11143;SDS011;5626;44.730;10.276;2022-10-23T00:45:13;38.25;;;29.75;;
11143;SDS011;5626;44.730;10.276;2022-10-23T00:47:48;37.20;;;29.50;;
11143;SDS011;5626;44.730;10.276;2022-10-23T00:50:18;35.63;;;28.17;;
11143;SDS011;5626;44.730;10.276;2022-10-23T00:52:51;35.63;;;28.85;;
11143;SDS011;5626;44.730;10.276;2022-10-23T00:55:22;37.42;;;28.80;;
11143;SDS011;5626;44.730;10.276;2022-10-23T00:57:55;37.45;;;27.98;;
11143;SDS011;5626;44.730;10.276;2022-10-23T01:00:28;34.95;;;28.35;;
11143;SDS011;5626;44.730;10.276;2022-10-23T01:03:08;36.08;;;27.95;;
11143;SDS011;5626;44.730;10.276;2022-10-23T01:05:39;34.42;;;27.30;;
11143;SDS011;5626;44.730;10.276;2022-10-23T01:08:18;35.42;;;27.95;;
11143;SDS011;5626;44.730;10.276;2022-10-23T01:10:56;38.97;;;28.08;;
11143;SDS011;5626;44.730;10.276;2022-10-23T01:13:35;32.63;;;27.35;;
11143;SDS011;5626;44.730;10.276;2022-10-23T01:16:15;34.33;;;26.80;;
11143;SDS011;5626;44.730;10.276;2022-10-23T01:18:50;37.95;;;27.23;;
11143;SDS011;5626;44.730;10.276;2022-10-23T01:21:27;33.58;;;27.17;;
11143;SDS011;5626;44.730;10.276;2022-10-23T01:24:08;33.25;;;26.90;;
11143;SDS011;5626;44.730;10.276;2022-10-23T01:26:54;38.75;;;27.92;;
11143;SDS011;5626;44.730;10.276;2022-10-23T01:29:42;34.90;;;27.45;;
11143;SDS011;5626;44.730;10.276;2022-10-23T01:32:15;40.17;;;27.85;;
11143;SDS011;5626;44.730;10.276;2022-10-23T01:34:51;34.42;;;27.85;;
11143;SDS011;5626;44.730;10.276;2022-10-23T01:37:28;36.67;;;28.25;;
11143;SDS011;5626;44.730;10.276;2022-10-23T01:40:03;36.15;;;27.23;;
11143;SDS011;5626;44.730;10.276;2022-10-23T01:42:40;38.20;;;27.00;;
11143;SDS011;5626;44.730;10.276;2022-10-23T01:45:15;33.15;;;26.35;;
11143;SDS011;5626;44.730;10.276;2022-10-23T01:47:49;33.95;;;26.25;;
11143;SDS011;5626;44.730;10.276;2022-10-23T01:50:21;33.90;;;26.55;;
11143;SDS011;5626;44.730;10.276;2022-10-23T01:53:00;35.85;;;27.67;;
11143;SDS011;5626;44.730;10.276;2022-10-23T01:55:31;33.70;;;27.27;;
11143;SDS011;5626;44.730;10.276;2022-10-23T01:58:05;35.92;;;27.20;;
11143;SDS011;5626;44.730;10.276;2022-10-23T02:00:38;33.75;;;27.42;;
11143;SDS011;5626;44.730;10.276;2022-10-23T02:03:10;36.58;;;28.13;;
11143;SDS011;5626;44.730;10.276;2022-10-23T02:05:43;34.10;;;27.77;;
11143;SDS011;5626;44.730;10.276;2022-10-23T02:08:12;35.72;;;27.13;;
11143;SDS011;5626;44.730;10.276;2022-10-23T02:10:43;35.03;;;27.10;;
11143;SDS011;5626;44.730;10.276;2022-10-23T02:13:23;32.80;;;26.90;;
11143;SDS011;5626;44.730;10.276;2022-10-23T02:15:59;33.03;;;25.88;;
11143;SDS011;5626;44.730;10.276;2022-10-23T02:18:34;34.72;;;26.98;;
11143;SDS011;5626;44.730;10.276;2022-10-23T02:21:11;32.17;;;26.25;;
11143;SDS011;5626;44.730;10.276;2022-10-23T02:23:46;32.90;;;25.92;;
11143;SDS011;5626;44.730;10.276;2022-10-23T02:26:23;36.35;;;27.60;;
11143;SDS011;5626;44.730;10.276;2022-10-23T02:28:57;34.97;;;26.65;;
11143;SDS011;5626;44.730;10.276;2022-10-23T02:31:41;30.73;;;26.45;;
11143;SDS011;5626;44.730;10.276;2022-10-23T02:34:11;35.35;;;27.17;;
11143;SDS011;5626;44.730;10.276;2022-10-23T02:36:41;33.08;;;27.73;;
11143;SDS011;5626;44.730;10.276;2022-10-23T02:39:11;33.13;;;26.23;;
11143;SDS011;5626;44.730;10.276;2022-10-23T02:41:43;34.08;;;26.45;;
11143;SDS011;5626;44.730;10.276;2022-10-23T02:44:31;36.65;;;27.67;;
11143;SDS011;5626;44.730;10.276;2022-10-23T02:47:09;41.13;;;28.20;;
11143;SDS011;5626;44.730;10.276;2022-10-23T02:49:52;37.42;;;28.63;;
11143;SDS011;5626;44.730;10.276;2022-10-23T02:52:32;35.70;;;27.17;;
11143;SDS011;5626;44.730;10.276;2022-10-23T02:55:09;41.40;;;30.67;;
11143;SDS011;5626;44.730;10.276;2022-10-23T02:57:54;36.03;;;29.00;;
11143;SDS011;5626;44.730;10.276;2022-10-23T03:00:33;43.03;;;29.58;;
11143;SDS011;5626;44.730;10.276;2022-10-23T03:03:07;39.67;;;29.50;;
11143;SDS011;5626;44.730;10.276;2022-10-23T03:05:39;35.92;;;28.90;;
11143;SDS011;5626;44.730;10.276;2022-10-23T03:08:13;38.67;;;29.92;;
11143;SDS011;5626;44.730;10.276;2022-10-23T03:10:43;45.50;;;30.40;;
11143;SDS011;5626;44.730;10.276;2022-10-23T03:13:12;55.38;;;32.55;;
11143;SDS011;5626;44.730;10.276;2022-10-23T03:15:44;48.42;;;32.72;;
11143;SDS011;5626;44.730;10.276;2022-10-23T03:18:14;46.40;;;32.38;;
11143;SDS011;5626;44.730;10.276;2022-10-23T03:20:48;43.38;;;31.60;;
11143;SDS011;5626;44.730;10.276;2022-10-23T03:23:22;48.47;;;34.20;;
11143;SDS011;5626;44.730;10.276;2022-10-23T03:25:51;47.25;;;33.80;;
11143;SDS011;5626;44.730;10.276;2022-10-23T03:28:35;45.20;;;32.05;;
11143;SDS011;5626;44.730;10.276;2022-10-23T03:31:06;47.60;;;34.63;;
11143;SDS011;5626;44.730;10.276;2022-10-23T03:33:38;50.15;;;34.15;;
11143;SDS011;5626;44.730;10.276;2022-10-23T03:36:10;54.47;;;34.97;;
11143;SDS011;5626;44.730;10.276;2022-10-23T03:38:39;56.53;;;35.72;;
11143;SDS011;5626;44.730;10.276;2022-10-23T03:41:10;49.78;;;34.95;;
11143;SDS011;5626;44.730;10.276;2022-10-23T03:43:40;52.88;;;36.08;;
11143;SDS011;5626;44.730;10.276;2022-10-23T03:46:11;56.55;;;35.55;;
11143;SDS011;5626;44.730;10.276;2022-10-23T03:48:41;58.67;;;36.40;;
11143;SDS011;5626;44.730;10.276;2022-10-23T03:51:11;52.30;;;36.47;;
11143;SDS011;5626;44.730;10.276;2022-10-23T03:53:41;57.58;;;37.55;;
11143;SDS011;5626;44.730;10.276;2022-10-23T03:56:11;51.88;;;36.40;;
11143;SDS011;5626;44.730;10.276;2022-10-23T03:58:40;54.03;;;35.75;;
11143;SDS011;5626;44.730;10.276;2022-10-23T04:01:11;51.67;;;35.15;;
11143;SDS011;5626;44.730;10.276;2022-10-23T04:03:41;58.63;;;38.38;;
11143;SDS011;5626;44.730;10.276;2022-10-23T04:06:10;56.67;;;38.10;;
11143;SDS011;5626;44.730;10.276;2022-10-23T04:08:41;58.28;;;36.80;;
11143;SDS011;5626;44.730;10.276;2022-10-23T04:11:14;57.08;;;37.35;;
11143;SDS011;5626;44.730;10.276;2022-10-23T04:13:45;51.30;;;34.22;;
11143;SDS011;5626;44.730;10.276;2022-10-23T04:16:16;56.40;;;36.17;;
11143;SDS011;5626;44.730;10.276;2022-10-23T04:18:46;56.38;;;34.30;;
11143;SDS011;5626;44.730;10.276;2022-10-23T04:21:15;60.60;;;37.08;;
11143;SDS011;5626;44.730;10.276;2022-10-23T04:23:45;57.28;;;37.75;;
11143;SDS011;5626;44.730;10.276;2022-10-23T04:26:17;58.35;;;38.60;;
11143;SDS011;5626;44.730;10.276;2022-10-23T04:28:46;60.42;;;36.88;;
11143;SDS011;5626;44.730;10.276;2022-10-23T04:31:18;54.55;;;35.40;;
11143;SDS011;5626;44.730;10.276;2022-10-23T04:33:48;57.10;;;37.40;;
11143;SDS011;5626;44.730;10.276;2022-10-23T04:36:29;57.65;;;38.30;;
11143;SDS011;5626;44.730;10.276;2022-10-23T04:39:06;55.00;;;37.97;;
11143;SDS011;5626;44.730;10.276;2022-10-23T04:41:36;56.00;;;37.35;;
11143;SDS011;5626;44.730;10.276;2022-10-23T04:44:06;55.10;;;37.33;;
11143;SDS011;5626;44.730;10.276;2022-10-23T04:46:39;57.83;;;35.92;;
11143;SDS011;5626;44.730;10.276;2022-10-23T04:49:09;56.40;;;37.53;;
11143;SDS011;5626;44.730;10.276;2022-10-23T04:52:04;50.95;;;35.40;;
11143;SDS011;5626;44.730;10.276;2022-10-23T04:54:35;65.40;;;34.58;;
11143;SDS011;5626;44.730;10.276;2022-10-23T04:57:28;55.88;;;36.80;;
11143;SDS011;5626;44.730;10.276;2022-10-23T05:00:00;53.22;;;35.25;;
11143;SDS011;5626;44.730;10.276;2022-10-23T05:02:40;49.97;;;35.50;;
11143;SDS011;5626;44.730;10.276;2022-10-23T05:05:09;52.35;;;35.22;;
11143;SDS011;5626;44.730;10.276;2022-10-23T05:08:02;51.47;;;34.88;;
11143;SDS011;5626;44.730;10.276;2022-10-23T05:10:42;53.10;;;35.83;;
11143;SDS011;5626;44.730;10.276;2022-10-23T05:13:13;54.25;;;36.78;;
11143;SDS011;5626;44.730;10.276;2022-10-23T05:15:44;47.80;;;34.72;;
11143;SDS011;5626;44.730;10.276;2022-10-23T05:18:20;53.83;;;34.85;;
11143;SDS011;5626;44.730;10.276;2022-10-23T05:20:54;56.85;;;33.10;;
11143;SDS011;5626;44.730;10.276;2022-10-23T05:23:26;47.75;;;33.35;;
11143;SDS011;5626;44.730;10.276;2022-10-23T05:26:01;52.67;;;33.08;;
11143;SDS011;5626;44.730;10.276;2022-10-23T05:28:32;59.25;;;34.00;;
11143;SDS011;5626;44.730;10.276;2022-10-23T05:31:03;61.50;;;33.40;;
11143;SDS011;5626;44.730;10.276;2022-10-23T05:33:38;52.80;;;33.42;;
11143;SDS011;5626;44.730;10.276;2022-10-23T05:36:09;51.75;;;34.72;;
11143;SDS011;5626;44.730;10.276;2022-10-23T05:38:40;84.47;;;32.72;;
11143;SDS011;5626;44.730;10.276;2022-10-23T05:41:14;60.13;;;33.30;;
11143;SDS011;5626;44.730;10.276;2022-10-23T05:43:44;50.67;;;34.95;;
11143;SDS011;5626;44.730;10.276;2022-10-23T05:46:32;53.67;;;35.87;;
11143;SDS011;5626;44.730;10.276;2022-10-23T05:49:18;65.85;;;35.78;;
11143;SDS011;5626;44.730;10.276;2022-10-23T05:52:09;48.90;;;36.20;;
11143;SDS011;5626;44.730;10.276;2022-10-23T05:55:05;45.80;;;34.58;;
11143;SDS011;5626;44.730;10.276;2022-10-23T05:57:53;85.72;;;31.23;;
11143;SDS011;5626;44.730;10.276;2022-10-23T06:00:46;56.38;;;34.33;;
11143;SDS011;5626;44.730;10.276;2022-10-23T06:03:35;51.67;;;33.03;;
11143;SDS011;5626;44.730;10.276;2022-10-23T06:06:11;54.60;;;32.13;;
11143;SDS011;5626;44.730;10.276;2022-10-23T06:08:44;58.60;;;31.27;;
11143;SDS011;5626;44.730;10.276;2022-10-23T06:11:14;42.30;;;31.67;;
11143;SDS011;5626;44.730;10.276;2022-10-23T06:13:53;45.30;;;29.90;;
11143;SDS011;5626;44.730;10.276;2022-10-23T06:16:28;47.78;;;28.73;;
11143;SDS011;5626;44.730;10.276;2022-10-23T06:18:58;42.17;;;29.90;;
11143;SDS011;5626;44.730;10.276;2022-10-23T06:21:29;47.03;;;30.25;;
11143;SDS011;5626;44.730;10.276;2022-10-23T06:23:59;47.10;;;32.78;;
11143;SDS011;5626;44.730;10.276;2022-10-23T06:26:34;55.08;;;31.73;;
11143;SDS011;5626;44.730;10.276;2022-10-23T06:29:09;47.67;;;32.15;;
11143;SDS011;5626;44.730;10.276;2022-10-23T06:31:41;55.42;;;29.38;;
11143;SDS011;5626;44.730;10.276;2022-10-23T06:34:12;47.33;;;30.42;;
11143;SDS011;5626;44.730;10.276;2022-10-23T06:36:43;47.47;;;29.60;;
11143;SDS011;5626;44.730;10.276;2022-10-23T06:39:41;50.17;;;27.55;;
11143;SDS011;5626;44.730;10.276;2022-10-23T06:42:21;49.50;;;27.20;;
11143;SDS011;5626;44.730;10.276;2022-10-23T06:44:54;41.63;;;29.50;;
11143;SDS011;5626;44.730;10.276;2022-10-23T06:48:03;41.67;;;28.48;;
11143;SDS011;5626;44.730;10.276;2022-10-23T06:51:03;40.95;;;27.25;;
11143;SDS011;5626;44.730;10.276;2022-10-23T06:53:41;41.85;;;27.15;;
11143;SDS011;5626;44.730;10.276;2022-10-23T06:56:31;38.75;;;27.35;;
11143;SDS011;5626;44.730;10.276;2022-10-23T06:59:05;37.00;;;28.55;;
11143;SDS011;5626;44.730;10.276;2022-10-23T07:01:36;40.70;;;26.75;;
11143;SDS011;5626;44.730;10.276;2022-10-23T07:04:07;39.08;;;28.40;;
11143;SDS011;5626;44.730;10.276;2022-10-23T07:06:37;38.67;;;27.05;;
11143;SDS011;5626;44.730;10.276;2022-10-23T07:09:08;36.65;;;26.75;;
11143;SDS011;5626;44.730;10.276;2022-10-23T07:11:50;37.30;;;27.85;;
11143;SDS011;5626;44.730;10.276;2022-10-23T07:14:27;39.72;;;29.02;;
11143;SDS011;5626;44.730;10.276;2022-10-23T07:17:01;37.97;;;28.73;;
11143;SDS011;5626;44.730;10.276;2022-10-23T07:19:30;42.42;;;30.02;;
11143;SDS011;5626;44.730;10.276;2022-10-23T07:22:06;31.58;;;26.00;;
11143;SDS011;5626;44.730;10.276;2022-10-23T07:24:48;34.80;;;25.88;;
11143;SDS011;5626;44.730;10.276;2022-10-23T07:27:26;53.88;;;33.88;;
11143;SDS011;5626;44.730;10.276;2022-10-23T07:29:57;49.92;;;34.30;;
11143;SDS011;5626;44.730;10.276;2022-10-23T07:32:31;51.45;;;31.77;;
11143;SDS011;5626;44.730;10.276;2022-10-23T07:35:19;43.72;;;29.83;;
11143;SDS011;5626;44.730;10.276;2022-10-23T07:38:15;38.83;;;28.95;;
11143;SDS011;5626;44.730;10.276;2022-10-23T07:40:52;42.75;;;28.88;;
11143;SDS011;5626;44.730;10.276;2022-10-23T07:43:24;41.25;;;28.33;;
11143;SDS011;5626;44.730;10.276;2022-10-23T07:45:54;35.92;;;27.60;;
11143;SDS011;5626;44.730;10.276;2022-10-23T07:48:32;38.42;;;26.08;;
11143;SDS011;5626;44.730;10.276;2022-10-23T07:51:04;45.63;;;26.88;;
11143;SDS011;5626;44.730;10.276;2022-10-23T07:53:50;31.27;;;25.90;;
11143;SDS011;5626;44.730;10.276;2022-10-23T07:56:44;43.40;;;26.92;;
11143;SDS011;5626;44.730;10.276;2022-10-23T07:59:20;42.70;;;29.83;;
11143;SDS011;5626;44.730;10.276;2022-10-23T08:01:52;47.95;;;29.95;;
11143;SDS011;5626;44.730;10.276;2022-10-23T08:04:28;42.20;;;30.10;;
11143;SDS011;5626;44.730;10.276;2022-10-23T08:07:04;46.60;;;31.20;;
11143;SDS011;5626;44.730;10.276;2022-10-23T08:09:39;35.95;;;27.92;;
11143;SDS011;5626;44.730;10.276;2022-10-23T08:12:10;33.53;;;25.75;;
11143;SDS011;5626;44.730;10.276;2022-10-23T08:14:39;37.83;;;26.38;;
11143;SDS011;5626;44.730;10.276;2022-10-23T08:17:09;36.58;;;29.25;;
11143;SDS011;5626;44.730;10.276;2022-10-23T08:20:11;40.47;;;28.35;;
11143;SDS011;5626;44.730;10.276;2022-10-23T08:22:43;37.00;;;27.85;;
11143;SDS011;5626;44.730;10.276;2022-10-23T08:25:18;36.42;;;27.10;;
11143;SDS011;5626;44.730;10.276;2022-10-23T08:27:53;29.77;;;24.80;;
11143;SDS011;5626;44.730;10.276;2022-10-23T08:30:23;35.33;;;28.50;;
11143;SDS011;5626;44.730;10.276;2022-10-23T08:32:53;35.13;;;27.52;;
11143;SDS011;5626;44.730;10.276;2022-10-23T08:35:23;34.50;;;26.17;;
11143;SDS011;5626;44.730;10.276;2022-10-23T08:37:52;32.90;;;25.98;;
11143;SDS011;5626;44.730;10.276;2022-10-23T08:40:24;34.28;;;26.40;;
11143;SDS011;5626;44.730;10.276;2022-10-23T08:43:33;35.58;;;26.42;;
11143;SDS011;5626;44.730;10.276;2022-10-23T08:46:27;28.90;;;23.25;;
11143;SDS011;5626;44.730;10.276;2022-10-23T08:49:20;36.78;;;29.15;;
11143;SDS011;5626;44.730;10.276;2022-10-23T08:52:01;40.70;;;27.45;;
11143;SDS011;5626;44.730;10.276;2022-10-23T08:54:45;35.88;;;28.52;;
11143;SDS011;5626;44.730;10.276;2022-10-23T08:57:25;33.95;;;27.13;;
11143;SDS011;5626;44.730;10.276;2022-10-23T09:00:04;33.85;;;27.75;;
11143;SDS011;5626;44.730;10.276;2022-10-23T09:02:37;31.90;;;26.58;;
11143;SDS011;5626;44.730;10.276;2022-10-23T09:05:15;33.35;;;27.42;;
11143;SDS011;5626;44.730;10.276;2022-10-23T09:07:55;33.25;;;27.15;;
11143;SDS011;5626;44.730;10.276;2022-10-23T09:10:50;31.35;;;26.02;;
11143;SDS011;5626;44.730;10.276;2022-10-23T09:13:39;30.98;;;25.40;;
11143;SDS011;5626;44.730;10.276;2022-10-23T09:16:26;30.83;;;24.40;;
11143;SDS011;5626;44.730;10.276;2022-10-23T09:19:08;31.58;;;24.80;;
11143;SDS011;5626;44.730;10.276;2022-10-23T09:21:43;31.45;;;25.63;;
11143;SDS011;5626;44.730;10.276;2022-10-23T09:24:14;32.08;;;25.35;;
11143;SDS011;5626;44.730;10.276;2022-10-23T09:26:47;28.27;;;22.52;;
11143;SDS011;5626;44.730;10.276;2022-10-23T09:29:20;35.22;;;26.13;;
11143;SDS011;5626;44.730;10.276;2022-10-23T09:31:53;33.03;;;23.25;;
11143;SDS011;5626;44.730;10.276;2022-10-23T09:34:25;32.03;;;25.95;;
11143;SDS011;5626;44.730;10.276;2022-10-23T09:36:57;27.98;;;23.73;;
11143;SDS011;5626;44.730;10.276;2022-10-23T09:39:29;31.45;;;25.52;;
11143;SDS011;5626;44.730;10.276;2022-10-23T09:42:00;33.95;;;25.67;;
11143;SDS011;5626;44.730;10.276;2022-10-23T09:44:46;31.17;;;25.00;;
11143;SDS011;5626;44.730;10.276;2022-10-23T09:47:20;31.13;;;24.85;;
11143;SDS011;5626;44.730;10.276;2022-10-23T09:49:51;31.48;;;25.85;;
11143;SDS011;5626;44.730;10.276;2022-10-23T09:52:24;29.15;;;24.48;;
11143;SDS011;5626;44.730;10.276;2022-10-23T09:54:58;34.90;;;26.55;;
11143;SDS011;5626;44.730;10.276;2022-10-23T09:57:32;29.83;;;25.50;;
11143;SDS011;5626;44.730;10.276;2022-10-23T10:00:06;27.48;;;23.08;;
11143;SDS011;5626;44.730;10.276;2022-10-23T10:02:55;29.88;;;24.80;;
11143;SDS011;5626;44.730;10.276;2022-10-23T10:05:42;31.90;;;25.85;;
11143;SDS011;5626;44.730;10.276;2022-10-23T10:08:23;28.42;;;21.42;;
11143;SDS011;5626;44.730;10.276;2022-10-23T10:11:08;28.35;;;22.13;;
11143;SDS011;5626;44.730;10.276;2022-10-23T10:13:51;28.65;;;23.65;;
11143;SDS011;5626;44.730;10.276;2022-10-23T10:16:31;30.52;;;24.50;;
11143;SDS011;5626;44.730;10.276;2022-10-23T10:19:17;31.77;;;24.83;;
11143;SDS011;5626;44.730;10.276;2022-10-23T10:21:59;31.10;;;24.52;;
11143;SDS011;5626;44.730;10.276;2022-10-23T10:24:37;30.88;;;24.65;;
11143;SDS011;5626;44.730;10.276;2022-10-23T10:27:15;30.63;;;25.55;;
11143;SDS011;5626;44.730;10.276;2022-10-23T10:29:58;32.47;;;25.35;;
11143;SDS011;5626;44.730;10.276;2022-10-23T10:32:34;27.42;;;22.38;;
11143;SDS011;5626;44.730;10.276;2022-10-23T10:35:18;30.23;;;24.75;;
11143;SDS011;5626;44.730;10.276;2022-10-23T10:38:00;30.70;;;24.40;;
11143;SDS011;5626;44.730;10.276;2022-10-23T10:40:40;29.63;;;22.63;;
11143;SDS011;5626;44.730;10.276;2022-10-23T10:43:20;34.67;;;27.35;;
11143;SDS011;5626;44.730;10.276;2022-10-23T10:46:02;31.25;;;25.33;;
11143;SDS011;5626;44.730;10.276;2022-10-23T10:48:45;30.85;;;25.63;;
11143;SDS011;5626;44.730;10.276;2022-10-23T10:51:39;35.70;;;27.20;;
11143;SDS011;5626;44.730;10.276;2022-10-23T10:54:20;31.45;;;26.95;;
11143;SDS011;5626;44.730;10.276;2022-10-23T10:57:03;31.40;;;25.55;;
11143;SDS011;5626;44.730;10.276;2022-10-23T10:59:40;29.45;;;25.20;;
11143;SDS011;5626;44.730;10.276;2022-10-23T11:02:18;32.47;;;26.60;;
11143;SDS011;5626;44.730;10.276;2022-10-23T11:04:56;28.20;;;24.98;;
11143;SDS011;5626;44.730;10.276;2022-10-23T11:07:36;28.45;;;25.05;;
11143;SDS011;5626;44.730;10.276;2022-10-23T11:10:14;27.40;;;24.52;;
11143;SDS011;5626;44.730;10.276;2022-10-23T11:12:46;28.10;;;25.10;;
11143;SDS011;5626;44.730;10.276;2022-10-23T11:15:18;28.73;;;24.73;;
11143;SDS011;5626;44.730;10.276;2022-10-23T11:17:52;26.77;;;23.98;;
11143;SDS011;5626;44.730;10.276;2022-10-23T11:23:35;25.13;;;22.42;;
11143;SDS011;5626;44.730;10.276;2022-10-23T11:26:33;27.35;;;24.42;;
11143;SDS011;5626;44.730;10.276;2022-10-23T11:29:19;31.60;;;25.33;;
11143;SDS011;5626;44.730;10.276;2022-10-23T11:32:05;24.30;;;21.58;;
11143;SDS011;5626;44.730;10.276;2022-10-23T11:35:07;26.60;;;23.77;;
11143;SDS011;5626;44.730;10.276;2022-10-23T11:37:56;29.73;;;25.33;;
11143;SDS011;5626;44.730;10.276;2022-10-23T11:40:29;28.52;;;25.52;;
11143;SDS011;5626;44.730;10.276;2022-10-23T11:42:59;29.67;;;26.02;;
11143;SDS011;5626;44.730;10.276;2022-10-23T11:45:31;24.63;;;22.17;;
11143;SDS011;5626;44.730;10.276;2022-10-23T11:48:19;28.08;;;25.05;;
11143;SDS011;5626;44.730;10.276;2022-10-23T11:50:52;29.00;;;25.70;;
11143;SDS011;5626;44.730;10.276;2022-10-23T11:53:26;26.90;;;23.45;;
11143;SDS011;5626;44.730;10.276;2022-10-23T11:56:26;31.30;;;25.17;;
11143;SDS011;5626;44.730;10.276;2022-10-23T11:59:16;28.85;;;24.42;;
11143;SDS011;5626;44.730;10.276;2022-10-23T12:01:51;29.35;;;25.38;;
11143;SDS011;5626;44.730;10.276;2022-10-23T12:04:32;29.38;;;26.20;;
11143;SDS011;5626;44.730;10.276;2022-10-23T12:07:14;31.27;;;26.02;;
11143;SDS011;5626;44.730;10.276;2022-10-23T12:09:53;31.52;;;26.75;;
11143;SDS011;5626;44.730;10.276;2022-10-23T12:12:28;29.65;;;26.25;;
11143;SDS011;5626;44.730;10.276;2022-10-23T12:17:54;28.48;;;25.45;;
11143;SDS011;5626;44.730;10.276;2022-10-23T12:20:41;31.45;;;26.13;;
11143;SDS011;5626;44.730;10.276;2022-10-23T12:23:22;29.95;;;26.33;;
11143;SDS011;5626;44.730;10.276;2022-10-23T12:29:17;33.05;;;25.98;;
11143;SDS011;5626;44.730;10.276;2022-10-23T12:32:04;31.80;;;26.55;;
11143;SDS011;5626;44.730;10.276;2022-10-23T12:34:45;32.40;;;25.63;;
11143;SDS011;5626;44.730;10.276;2022-10-23T12:37:42;29.65;;;25.55;;
11143;SDS011;5626;44.730;10.276;2022-10-23T12:40:31;32.30;;;26.75;;
11143;SDS011;5626;44.730;10.276;2022-10-23T12:43:01;30.90;;;26.10;;
11143;SDS011;5626;44.730;10.276;2022-10-23T12:45:34;33.33;;;26.45;;
11143;SDS011;5626;44.730;10.276;2022-10-23T12:48:15;31.50;;;26.80;;
11143;SDS011;5626;44.730;10.276;2022-10-23T12:50:49;30.08;;;22.65;;
11143;SDS011;5626;44.730;10.276;2022-10-23T12:53:21;30.30;;;26.08;;
11143;SDS011;5626;44.730;10.276;2022-10-23T12:55:55;29.58;;;25.88;;
11143;SDS011;5626;44.730;10.276;2022-10-23T12:58:27;30.45;;;26.30;;
11143;SDS011;5626;44.730;10.276;2022-10-23T13:01:04;31.17;;;26.80;;
11143;SDS011;5626;44.730;10.276;2022-10-23T13:03:35;33.35;;;28.00;;
11143;SDS011;5626;44.730;10.276;2022-10-23T13:06:08;32.53;;;28.08;;
11143;SDS011;5626;44.730;10.276;2022-10-23T13:08:43;30.90;;;26.67;;
11143;SDS011;5626;44.730;10.276;2022-10-23T13:11:40;32.38;;;25.92;;
11143;SDS011;5626;44.730;10.276;2022-10-23T13:14:23;31.50;;;26.50;;
11143;SDS011;5626;44.730;10.276;2022-10-23T13:17:00;33.78;;;26.88;;
11143;SDS011;5626;44.730;10.276;2022-10-23T13:19:32;34.53;;;26.20;;
11143;SDS011;5626;44.730;10.276;2022-10-23T13:22:02;31.60;;;26.00;;
11143;SDS011;5626;44.730;10.276;2022-10-23T13:24:41;28.75;;;25.00;;
11143;SDS011;5626;44.730;10.276;2022-10-23T13:27:22;32.38;;;25.05;;
11143;SDS011;5626;44.730;10.276;2022-10-23T13:29:54;28.42;;;24.15;;
11143;SDS011;5626;44.730;10.276;2022-10-23T13:32:26;29.08;;;24.25;;
11143;SDS011;5626;44.730;10.276;2022-10-23T13:34:58;29.17;;;24.35;;
11143;SDS011;5626;44.730;10.276;2022-10-23T13:37:43;29.27;;;22.45;;
11143;SDS011;5626;44.730;10.276;2022-10-23T13:40:19;26.08;;;21.92;;
11143;SDS011;5626;44.730;10.276;2022-10-23T13:42:51;30.55;;;22.23;;
11143;SDS011;5626;44.730;10.276;2022-10-23T13:45:24;26.73;;;21.15;;
11143;SDS011;5626;44.730;10.276;2022-10-23T13:47:55;29.30;;;22.25;;
11143;SDS011;5626;44.730;10.276;2022-10-23T13:50:25;25.17;;;21.38;;
11143;SDS011;5626;44.730;10.276;2022-10-23T13:52:54;28.55;;;22.35;;
11143;SDS011;5626;44.730;10.276;2022-10-23T13:55:24;27.55;;;22.45;;
11143;SDS011;5626;44.730;10.276;2022-10-23T13:57:54;28.48;;;22.42;;
11143;SDS011;5626;44.730;10.276;2022-10-23T14:00:24;25.70;;;21.70;;
11143;SDS011;5626;44.730;10.276;2022-10-23T14:02:55;29.75;;;21.42;;
11143;SDS011;5626;44.730;10.276;2022-10-23T14:05:25;28.15;;;22.60;;
11143;SDS011;5626;44.730;10.276;2022-10-23T14:07:54;27.15;;;23.20;;
11143;SDS011;5626;44.730;10.276;2022-10-23T14:10:24;27.52;;;23.13;;
11143;SDS011;5626;44.730;10.276;2022-10-23T14:12:54;29.30;;;21.33;;
11143;SDS011;5626;44.730;10.276;2022-10-23T14:15:23;27.55;;;22.40;;
11143;SDS011;5626;44.730;10.276;2022-10-23T14:17:53;28.73;;;22.45;;
11143;SDS011;5626;44.730;10.276;2022-10-23T14:20:24;29.83;;;22.65;;
11143;SDS011;5626;44.730;10.276;2022-10-23T14:22:54;28.33;;;23.25;;
11143;SDS011;5626;44.730;10.276;2022-10-23T14:25:23;30.52;;;22.70;;
11143;SDS011;5626;44.730;10.276;2022-10-23T14:27:53;30.90;;;24.48;;
11143;SDS011;5626;44.730;10.276;2022-10-23T14:30:23;29.58;;;23.35;;
11143;SDS011;5626;44.730;10.276;2022-10-23T14:32:52;31.83;;;23.55;;
11143;SDS011;5626;44.730;10.276;2022-10-23T14:35:22;29.83;;;22.63;;
11143;SDS011;5626;44.730;10.276;2022-10-23T14:37:53;27.80;;;23.20;;
11143;SDS011;5626;44.730;10.276;2022-10-23T14:40:25;26.25;;;22.73;;
11143;SDS011;5626;44.730;10.276;2022-10-23T14:42:55;28.17;;;21.95;;
11143;SDS011;5626;44.730;10.276;2022-10-23T14:45:24;27.85;;;22.08;;
11143;SDS011;5626;44.730;10.276;2022-10-23T14:47:54;28.20;;;21.27;;
11143;SDS011;5626;44.730;10.276;2022-10-23T14:50:24;27.70;;;21.50;;
11143;SDS011;5626;44.730;10.276;2022-10-23T14:52:54;26.08;;;21.88;;
11143;SDS011;5626;44.730;10.276;2022-10-23T14:55:24;27.73;;;19.25;;
11143;SDS011;5626;44.730;10.276;2022-10-23T14:57:54;29.35;;;21.05;;
11143;SDS011;5626;44.730;10.276;2022-10-23T15:00:24;26.75;;;21.05;;
11143;SDS011;5626;44.730;10.276;2022-10-23T15:02:53;30.25;;;21.58;;
11143;SDS011;5626;44.730;10.276;2022-10-23T15:05:23;30.85;;;21.95;;
11143;SDS011;5626;44.730;10.276;2022-10-23T15:07:53;29.50;;;22.27;;
11143;SDS011;5626;44.730;10.276;2022-10-23T15:10:25;28.05;;;22.48;;
11143;SDS011;5626;44.730;10.276;2022-10-23T15:12:54;26.17;;;21.85;;
11143;SDS011;5626;44.730;10.276;2022-10-23T15:15:24;28.00;;;21.52;;
11143;SDS011;5626;44.730;10.276;2022-10-23T15:17:54;28.35;;;21.35;;
11143;SDS011;5626;44.730;10.276;2022-10-23T15:20:27;26.92;;;21.83;;